CheckWX is a tool to help pilots better visualize weather data.  It is not intended as a substitute for an official pre-flight weather briefing.

18:34:57 UTC

KGYL METAR
Glencoe Municipal Airport
Glencoe, Minnesota, USA
Current

19 mins ago

KGYL 221816Z AUTO 10003KT 5SM HZ SCT075 OVC090 M06/M09 A3038 RMK AO2 T10611095
Observed
Feb-22 @ 18:16 UTC
Wind
  • 100° at 3 KTS
Visibility
5 SM
Flight Rules
MVFR
Conditions
Haze
Cloud Levels
  • Scattered at 7,500' AGL
  • Overcast at 9,000' AGL
Temperature
-6°C / 21°F
Dewpoint
-10°C / 14°F
Humidity
74%
Altimeter
30.38" Hg
Pressure
1028.81 hPa
Previous

40 mins ago

KGYL 221755Z AUTO 00000KT 5SM BR BKN075 OVC090 M07/M09 A3038 RMK AO2 T10701088 11069 21175
Observed
Feb-22 @ 17:55 UTC
Visibility
5 SM
Flight Rules
MVFR
Conditions
Mist
Cloud Levels
  • Broken at 7,500' AGL
  • Overcast at 9,000' AGL
Temperature
-7°C / 19°F
Dewpoint
-9°C / 16°F
Humidity
86%
Altimeter
30.38" Hg
Pressure
1028.81 hPa
Previous

59 mins ago

KGYL 221736Z AUTO 10004KT 5SM BR BKN075 OVC085 M07/M09 A3039 RMK AO2 T10751088
Observed
Feb-22 @ 17:36 UTC
Wind
  • 100° at 4 KTS
Visibility
5 SM
Flight Rules
MVFR
Conditions
Mist
Cloud Levels
  • Broken at 7,500' AGL
  • Overcast at 8,500' AGL
Temperature
-8°C / 18°F
Dewpoint
-9°C / 16°F
Humidity
93%
Altimeter
30.39" Hg
Pressure
1029.11 hPa